Terminal Aerodrome Forecast
Issued by NWS Twin Cities, MN

Home | Current Version | Previous Version | Graphics & Text | Print | Product List | Glossary On
Versions: 1 2 3 4 5 6 7 8 9 10 11 12 13 14 15 16 17
000
FTUS43 KMPX 292200 AAA
TAFEAU
TAF AMD
KEAU 292229Z 2922/3018 29006KT P6SM BKN029
      TEMPO 2923/2924 SCT029
     FM300000 25006KT P6SM SCT030
     FM300200 VRB02KT P6SM SCT040 SCT110
     FM300900 17004KT P6SM BKN090=

USA.gov is the U.S. government's official web portal to all federal, state and local government web resources and services.